createdAt,value
2016-12-26T00:00:56.265Z,0
2016-12-26T00:02:07.251Z,0
2016-12-26T00:03:18.236Z,0
2016-12-26T00:04:29.475Z,0
2016-12-26T00:05:40.517Z,0
2016-12-26T00:06:51.522Z,0
2016-12-26T00:08:02.511Z,0
2016-12-26T00:09:13.700Z,0
2016-12-26T00:10:24.794Z,0
2016-12-26T00:11:35.788Z,0
2016-12-26T00:12:46.769Z,0
2016-12-26T00:13:57.750Z,0
2016-12-26T00:15:08.740Z,0
2016-12-26T00:16:19.775Z,0
2016-12-26T00:17:30.968Z,0
2016-12-26T00:18:41.996Z,0
2016-12-26T00:19:52.979Z,0
2016-12-26T00:21:03.969Z,0
2016-12-26T00:22:15.001Z,0
2016-12-26T00:23:26.021Z,0
2016-12-26T00:24:37.010Z,0
2016-12-26T00:25:48.001Z,0
2016-12-26T00:26:58.984Z,0
2016-12-26T00:28:10.027Z,0
2016-12-26T00:29:21.017Z,0
2016-12-26T00:30:32.000Z,0
2016-12-26T00:31:42.992Z,0
2016-12-26T00:32:53.976Z,0
2016-12-26T00:34:05.207Z,0
2016-12-26T00:35:16.396Z,0
2016-12-26T00:36:27.581Z,0
2016-12-26T00:37:38.569Z,0
2016-12-26T00:38:49.584Z,0
2016-12-26T00:40:00.616Z,0
2016-12-26T00:41:11.615Z,0
2016-12-26T00:42:22.794Z,0
2016-12-26T00:43:33.782Z,0
2016-12-26T00:44:44.777Z,0
2016-12-26T00:45:55.831Z,0
2016-12-26T00:47:06.815Z,0
2016-12-26T00:48:17.802Z,0
2016-12-26T00:49:28.986Z,0
2016-12-26T00:50:39.970Z,0
2016-12-26T00:51:51.006Z,0
2016-12-26T00:53:01.994Z,0
2016-12-26T00:54:13.227Z,0
2016-12-26T00:55:24.212Z,0
2016-12-26T00:56:35.397Z,0
2016-12-26T00:57:46.635Z,0
2016-12-26T00:58:57.628Z,0
2016-12-26T01:00:08.621Z,0
2016-12-26T01:01:19.603Z,0
2016-12-26T01:02:30.600Z,0
2016-12-26T01:03:41.638Z,0
2016-12-26T01:04:52.624Z,0
2016-12-26T01:06:03.612Z,0
2016-12-26T01:07:14.603Z,0
2016-12-26T01:08:25.599Z,0
2016-12-26T01:09:36.645Z,0
2016-12-26T01:10:47.640Z,0
2016-12-26T01:11:58.626Z,0
2016-12-26T01:13:09.815Z,0
2016-12-26T01:14:20.807Z,0
2016-12-26T01:15:31.852Z,0
2016-12-26T01:16:43.041Z,0
2016-12-26T01:17:54.027Z,0
2016-12-26T01:19:05.006Z,0
2016-12-26T01:20:15.988Z,0
2016-12-26T01:21:27.025Z,0
2016-12-26T01:22:38.017Z,0
2016-12-26T01:23:49.005Z,0
2016-12-26T01:25:00.010Z,0
2016-12-26T01:26:11.002Z,0
2016-12-26T01:27:22.036Z,0
2016-12-26T01:28:33.025Z,0
2016-12-26T01:29:44.003Z,0
2016-12-26T01:30:54.992Z,0
2016-12-26T01:32:05.978Z,0
2016-12-26T01:33:17.213Z,0
2016-12-26T01:34:28.204Z,0
2016-12-26T01:35:39.395Z,0
2016-12-26T01:36:50.383Z,0
2016-12-26T01:38:01.375Z,0
2016-12-26T01:39:12.607Z,0
2016-12-26T01:40:23.807Z,0
2016-12-26T01:41:35.000Z,0
2016-12-26T01:42:45.987Z,0
2016-12-26T01:43:56.975Z,0
2016-12-26T01:45:08.002Z,0
2016-12-26T01:46:18.987Z,0
2016-12-26T01:47:29.969Z,0
2016-12-26T01:48:40.958Z,0
2016-12-26T01:49:51.937Z,0
2016-12-26T01:51:02.977Z,0
2016-12-26T01:52:13.961Z,0
2016-12-26T01:53:24.965Z,0
2016-12-26T01:54:36.138Z,0
2016-12-26T01:55:47.133Z,0
2016-12-26T01:56:58.167Z,0
2016-12-26T01:58:09.159Z,0
2016-12-26T01:59:20.150Z,0
2016-12-26T02:00:31.138Z,0
2016-12-26T02:01:42.124Z,0
2016-12-26T02:02:53.177Z,0
2016-12-26T02:04:04.161Z,0
2016-12-26T02:05:15.343Z,0
2016-12-26T02:06:26.533Z,0
2016-12-26T02:07:37.522Z,0
2016-12-26T02:08:48.757Z,0
2016-12-26T02:09:59.750Z,0
2016-12-26T02:11:10.734Z,0
2016-12-26T02:12:21.720Z,0
2016-12-26T02:13:32.711Z,0
2016-12-26T02:14:43.749Z,0
2016-12-26T02:15:54.729Z,0
2016-12-26T02:17:05.708Z,0
2016-12-26T02:18:16.698Z,0
2016-12-26T02:19:27.687Z,0
2016-12-26T02:20:38.715Z,0
2016-12-26T02:21:49.713Z,0
2016-12-26T02:23:00.697Z,0
2016-12-26T02:24:11.692Z,0
2016-12-26T02:25:22.682Z,0
2016-12-26T02:26:34.133Z,0
2016-12-26T02:27:45.108Z,0
2016-12-26T02:28:56.101Z,0
2016-12-26T02:30:07.080Z,0
2016-12-26T02:31:18.291Z,0
2016-12-26T02:32:29.533Z,0
2016-12-26T02:33:40.507Z,0
2016-12-26T02:34:51.502Z,0
2016-12-26T02:36:02.495Z,0
2016-12-26T02:37:13.486Z,0
2016-12-26T02:38:24.525Z,0
2016-12-26T02:39:35.510Z,0
2016-12-26T02:40:46.500Z,0
2016-12-26T02:41:57.483Z,0
2016-12-26T02:43:08.467Z,0
2016-12-26T02:44:19.511Z,0
2016-12-26T02:45:30.490Z,0
2016-12-26T02:46:41.477Z,0
2016-12-26T02:47:52.459Z,0
2016-12-26T02:49:03.444Z,0
2016-12-26T02:50:14.490Z,0
2016-12-26T02:51:25.484Z,0
2016-12-26T02:52:36.474Z,0
2016-12-26T02:53:47.665Z,0
2016-12-26T02:54:58.646Z,0
2016-12-26T02:56:09.883Z,0
2016-12-26T02:57:20.873Z,0
2016-12-26T02:58:31.861Z,0
2016-12-26T02:59:42.849Z,0
2016-12-26T03:00:53.834Z,0
2016-12-26T03:02:04.876Z,0
2016-12-26T03:03:15.857Z,0
2016-12-26T03:04:26.867Z,0
2016-12-26T03:05:37.855Z,0
2016-12-26T03:06:49.043Z,0
2016-12-26T03:08:00.087Z,0
2016-12-26T03:09:11.073Z,0
2016-12-26T03:10:22.466Z,0
2016-12-26T03:11:33.458Z,0
2016-12-26T03:12:44.451Z,0
2016-12-26T03:13:55.485Z,0
2016-12-26T03:15:06.475Z,0
2016-12-26T03:16:17.458Z,0
2016-12-26T03:17:28.472Z,0
2016-12-26T03:18:39.455Z,0
2016-12-26T03:19:50.502Z,0
2016-12-26T03:21:01.689Z,0
2016-12-26T03:22:12.678Z,0
2016-12-26T03:23:23.676Z,0
2016-12-26T03:24:34.657Z,0
2016-12-26T03:25:45.695Z,0
2016-12-26T03:26:56.677Z,0
2016-12-26T03:28:07.663Z,0
2016-12-26T03:29:18.650Z,0
2016-12-26T03:30:29.639Z,0
2016-12-26T03:31:40.678Z,0
2016-12-26T03:32:51.865Z,0
2016-12-26T03:34:03.047Z,0
2016-12-26T03:35:14.028Z,0
2016-12-26T03:36:25.216Z,0
2016-12-26T03:37:36.252Z,0
2016-12-26T03:38:47.235Z,0
2016-12-26T03:39:58.227Z,0
2016-12-26T03:41:09.421Z,0
2016-12-26T03:42:20.402Z,0
2016-12-26T03:43:31.449Z,0
2016-12-26T03:44:42.433Z,0
2016-12-26T03:45:53.626Z,0
2016-12-26T03:47:04.618Z,0
2016-12-26T03:48:15.602Z,0
2016-12-26T03:49:26.642Z,0
2016-12-26T03:50:37.623Z,0
2016-12-26T03:51:48.611Z,0
2016-12-26T03:52:59.809Z,0
2016-12-26T03:54:11.003Z,0
2016-12-26T03:55:22.040Z,0
2016-12-26T03:56:33.034Z,0
2016-12-26T03:57:44.028Z,0
2016-12-26T03:58:55.421Z,0
2016-12-26T04:00:06.406Z,0
2016-12-26T04:01:17.457Z,0
2016-12-26T04:02:28.440Z,0
2016-12-26T04:03:39.433Z,0
2016-12-26T04:04:50.425Z,0
2016-12-26T04:06:01.408Z,0
2016-12-26T04:07:12.445Z,0
2016-12-26T04:08:23.442Z,0
2016-12-26T04:09:34.467Z,0
2016-12-26T04:10:45.456Z,0
2016-12-26T04:11:56.653Z,0
2016-12-26T04:13:07.691Z,0
2016-12-26T04:14:18.685Z,0
2016-12-26T04:15:29.878Z,0
2016-12-26T04:16:40.867Z,0
2016-12-26T04:17:51.856Z,0
2016-12-26T04:19:02.891Z,0
2016-12-26T04:20:13.875Z,0
2016-12-26T04:21:24.862Z,0
2016-12-26T04:22:36.051Z,0
2016-12-26T04:23:47.040Z,0
2016-12-26T04:24:58.080Z,0
2016-12-26T04:26:09.062Z,0
2016-12-26T04:27:20.051Z,0
2016-12-26T04:28:31.037Z,0
2016-12-26T04:29:42.018Z,0
2016-12-26T04:30:53.262Z,0
2016-12-26T04:32:04.259Z,0
2016-12-26T04:33:15.650Z,0
2016-12-26T04:34:26.637Z,0
2016-12-26T04:35:37.823Z,0
2016-12-26T04:36:48.861Z,0
2016-12-26T04:37:59.847Z,0
2016-12-26T04:39:10.834Z,0
2016-12-26T04:40:21.825Z,0
2016-12-26T04:41:32.852Z,0
2016-12-26T04:42:43.891Z,0
2016-12-26T04:43:54.884Z,0
2016-12-26T04:45:06.063Z,0
2016-12-26T04:46:17.260Z,0
2016-12-26T04:47:28.248Z,0
2016-12-26T04:48:39.285Z,0
2016-12-26T04:49:50.272Z,0
2016-12-26T04:51:01.467Z,0
2016-12-26T04:52:12.452Z,0
2016-12-26T04:53:23.445Z,0
2016-12-26T04:54:34.482Z,0
2016-12-26T04:55:45.876Z,0
2016-12-26T04:56:56.861Z,0
2016-12-26T04:58:07.848Z,0
2016-12-26T04:59:18.838Z,0
2016-12-26T05:00:29.870Z,0
2016-12-26T05:01:40.861Z,0
2016-12-26T05:02:52.046Z,0
2016-12-26T05:04:03.029Z,0
2016-12-26T05:05:14.022Z,0
2016-12-26T05:06:25.051Z,0
2016-12-26T05:07:36.047Z,0
2016-12-26T05:08:47.229Z,0
2016-12-26T05:09:58.268Z,0
2016-12-26T05:11:09.253Z,0
2016-12-26T05:12:20.289Z,0
2016-12-26T05:13:31.269Z,0
2016-12-26T05:14:42.263Z,0
2016-12-26T05:15:53.456Z,0
2016-12-26T05:17:04.445Z,0
2016-12-26T05:18:15.507Z,0
2016-12-26T05:19:26.504Z,0
2016-12-26T05:20:37.485Z,0
2016-12-26T05:21:48.502Z,0
2016-12-26T05:22:59.693Z,0
2016-12-26T05:24:10.731Z,0
2016-12-26T05:25:21.708Z,0
2016-12-26T05:26:32.703Z,0
2016-12-26T05:27:43.707Z,0
2016-12-26T05:28:54.687Z,0
2016-12-26T05:30:05.724Z,0
2016-12-26T05:31:16.710Z,0
2016-12-26T05:32:27.896Z,0
2016-12-26T05:33:38.881Z,0
2016-12-26T05:34:49.862Z,0
2016-12-26T05:36:00.893Z,0
2016-12-26T05:37:11.876Z,0
2016-12-26T05:38:22.870Z,0
2016-12-26T05:39:33.862Z,0
2016-12-26T05:40:44.847Z,0
2016-12-26T05:41:55.886Z,0
2016-12-26T05:43:06.906Z,0
2016-12-26T05:44:17.899Z,0
2016-12-26T05:45:29.085Z,0
2016-12-26T05:46:40.281Z,0
2016-12-26T05:47:51.317Z,0
2016-12-26T05:49:02.302Z,0
2016-12-26T05:50:13.293Z,0
2016-12-26T05:51:24.314Z,0
2016-12-26T05:52:35.308Z,0
2016-12-26T05:53:46.342Z,0
2016-12-26T05:54:57.539Z,0
2016-12-26T05:56:08.727Z,0
2016-12-26T05:57:19.709Z,0
2016-12-26T05:58:30.696Z,0
2016-12-26T05:59:41.952Z,0
2016-12-26T06:00:52.933Z,0
2016-12-26T06:02:03.919Z,0
2016-12-26T06:03:14.895Z,0
2016-12-26T06:04:25.886Z,0
2016-12-26T06:05:37.126Z,0
2016-12-26T06:06:48.342Z,0
2016-12-26T06:07:59.334Z,0
2016-12-26T06:09:10.309Z,0
2016-12-26T06:10:21.505Z,0
2016-12-26T06:11:32.539Z,0
2016-12-26T06:12:43.740Z,0
2016-12-26T06:13:54.721Z,0
2016-12-26T06:15:05.711Z,0
2016-12-26T06:16:16.697Z,0
2016-12-26T06:17:27.738Z,0
2016-12-26T06:18:38.731Z,0
2016-12-26T06:19:49.728Z,0
2016-12-26T06:21:00.715Z,0
2016-12-26T06:22:11.696Z,0
2016-12-26T06:23:22.762Z,0
2016-12-26T06:24:33.744Z,0
2016-12-26T06:25:44.725Z,0
2016-12-26T06:26:55.919Z,0
2016-12-26T06:28:06.924Z,0
2016-12-26T06:29:17.960Z,0
2016-12-26T06:30:29.152Z,0
2016-12-26T06:31:40.133Z,0
2016-12-26T06:32:51.323Z,0
2016-12-26T06:34:02.306Z,0
2016-12-26T06:35:13.342Z,0
2016-12-26T06:36:24.535Z,0
2016-12-26T06:37:35.722Z,0
2016-12-26T06:38:46.911Z,0
2016-12-26T06:39:57.894Z,0
2016-12-26T06:41:08.920Z,0
2016-12-26T06:42:19.907Z,0
2016-12-26T06:43:30.900Z,0
2016-12-26T06:44:41.891Z,0
2016-12-26T06:45:52.880Z,0
2016-12-26T06:47:03.920Z,0
2016-12-26T06:48:14.908Z,0
2016-12-26T06:49:25.899Z,0
2016-12-26T06:50:36.892Z,0
2016-12-26T06:51:47.883Z,0
2016-12-26T06:52:58.924Z,0
2016-12-26T06:54:09.919Z,0
2016-12-26T06:55:20.913Z,0
2016-12-26T06:56:32.096Z,0
2016-12-26T06:57:43.080Z,0
2016-12-26T06:58:54.116Z,0
2016-12-26T07:00:05.107Z,0
2016-12-26T07:01:16.096Z,0
2016-12-26T07:02:27.086Z,0
2016-12-26T07:03:38.064Z,4
2016-12-26T07:04:49.102Z,0
2016-12-26T07:06:00.091Z,0
2016-12-26T07:07:11.091Z,0
2016-12-26T07:08:22.086Z,4
2016-12-26T07:09:33.072Z,4
2016-12-26T07:10:44.120Z,4
2016-12-26T07:11:55.130Z,4
2016-12-26T07:13:06.113Z,4
2016-12-26T07:14:17.097Z,4
2016-12-26T07:15:28.284Z,8
2016-12-26T07:16:39.322Z,12
2016-12-26T07:17:50.308Z,12
2016-12-26T07:19:01.306Z,16
2016-12-26T07:20:12.286Z,16
2016-12-26T07:21:23.476Z,20
2016-12-26T07:22:34.542Z,16
2016-12-26T07:23:45.731Z,16
2016-12-26T07:24:56.726Z,20
2016-12-26T07:26:07.727Z,20
2016-12-26T07:27:18.712Z,24
2016-12-26T07:28:29.745Z,24
2016-12-26T07:29:40.736Z,28
2016-12-26T07:30:51.726Z,28
2016-12-26T07:32:02.713Z,36
2016-12-26T07:33:13.703Z,44
2016-12-26T07:34:24.896Z,44
2016-12-26T07:35:35.880Z,44
2016-12-26T07:36:46.872Z,40
2016-12-26T07:37:57.895Z,52
2016-12-26T07:39:08.872Z,48
2016-12-26T07:40:19.907Z,52
2016-12-26T07:41:30.896Z,56
2016-12-26T07:42:41.908Z,64
2016-12-26T07:43:52.892Z,72
2016-12-26T07:45:03.870Z,56
2016-12-26T07:46:14.920Z,56
2016-12-26T07:47:25.933Z,52
2016-12-26T07:48:36.916Z,60
2016-12-26T07:49:47.954Z,52
2016-12-26T07:50:59.136Z,56
2016-12-26T07:52:10.124Z,60
2016-12-26T07:53:21.104Z,60
2016-12-26T07:54:32.092Z,60
2016-12-26T07:55:43.087Z,68
2016-12-26T07:56:54.131Z,92
2016-12-26T07:58:05.121Z,108
2016-12-26T07:59:16.302Z,104
2016-12-26T08:00:27.319Z,116
2016-12-26T08:01:38.303Z,136
2016-12-26T08:02:49.339Z,124
2016-12-26T08:04:00.321Z,116
2016-12-26T08:05:11.541Z,116
2016-12-26T08:06:22.528Z,128
2016-12-26T08:07:33.529Z,112
2016-12-26T08:08:44.570Z,96
2016-12-26T08:09:55.560Z,72
2016-12-26T08:11:06.573Z,64
2016-12-26T08:12:17.552Z,84
2016-12-26T08:13:28.548Z,160
2016-12-26T08:14:39.587Z,220
2016-12-26T08:15:50.569Z,256
2016-12-26T08:17:01.551Z,248
2016-12-26T08:18:12.542Z,224
2016-12-26T08:19:23.537Z,204
2016-12-26T08:20:34.574Z,216
2016-12-26T08:21:45.555Z,236
2016-12-26T08:22:56.541Z,272
2016-12-26T08:24:07.529Z,288
2016-12-26T08:25:18.713Z,288
2016-12-26T08:26:29.945Z,300
2016-12-26T08:27:40.921Z,296
2016-12-26T08:28:51.913Z,352
2016-12-26T08:30:02.905Z,440
2016-12-26T08:31:14.295Z,452
2016-12-26T08:32:25.533Z,428
2016-12-26T08:33:36.514Z,408
2016-12-26T08:34:47.503Z,420
2016-12-26T08:35:58.697Z,480
2016-12-26T08:37:09.686Z,560
2016-12-26T08:38:20.709Z,612
2016-12-26T08:39:31.694Z,664
2016-12-26T08:40:42.683Z,724
2016-12-26T08:41:53.665Z,776
2016-12-26T08:43:04.650Z,880
2016-12-26T08:44:15.681Z,1020
2016-12-26T08:45:26.671Z,1116
2016-12-26T08:46:37.861Z,1172
2016-12-26T08:47:48.852Z,1240
2016-12-26T08:48:59.845Z,1424
2016-12-26T08:50:11.083Z,1676
2016-12-26T08:51:22.070Z,2044
2016-12-26T08:52:33.066Z,2348
2016-12-26T08:53:44.060Z,2192
2016-12-26T08:54:55.239Z,1848
2016-12-26T08:56:06.468Z,1696
2016-12-26T08:57:17.463Z,1540
2016-12-26T08:58:28.456Z,1448
2016-12-26T08:59:39.452Z,1348
2016-12-26T09:00:50.442Z,1248
2016-12-26T09:02:01.473Z,1316
2016-12-26T09:03:12.469Z,1456
2016-12-26T09:04:23.457Z,1492
2016-12-26T09:05:34.643Z,1636
2016-12-26T09:06:45.837Z,1648
2016-12-26T09:07:56.877Z,1328
2016-12-26T09:09:07.856Z,1140
2016-12-26T09:10:18.843Z,1076
2016-12-26T09:11:29.828Z,956
2016-12-26T09:12:41.021Z,952
2016-12-26T09:13:52.061Z,1040
2016-12-26T09:15:03.056Z,1180
2016-12-26T09:16:14.041Z,1240
2016-12-26T09:17:25.025Z,1224
2016-12-26T09:18:36.003Z,1232
2016-12-26T09:19:47.049Z,1236
2016-12-26T09:20:58.030Z,1200
2016-12-26T09:22:09.018Z,1072
2016-12-26T09:23:19.998Z,924
2016-12-26T09:24:30.994Z,892
2016-12-26T09:25:42.033Z,996
2016-12-26T09:26:53.020Z,968
2016-12-26T09:28:03.999Z,816
2016-12-26T09:29:15.015Z,612
2016-12-26T09:30:26.005Z,512
2016-12-26T09:31:37.042Z,516
2016-12-26T09:32:48.053Z,560
2016-12-26T09:33:59.244Z,588
2016-12-26T09:35:10.258Z,580
2016-12-26T09:36:21.240Z,568
2016-12-26T09:37:32.274Z,600
2016-12-26T09:38:43.257Z,644
2016-12-26T09:39:54.238Z,636
2016-12-26T09:41:05.220Z,588
2016-12-26T09:42:16.201Z,552
2016-12-26T09:43:27.443Z,544
2016-12-26T09:44:38.633Z,548
2016-12-26T09:45:49.619Z,588
2016-12-26T09:47:00.613Z,608
2016-12-26T09:48:11.804Z,628
2016-12-26T09:49:22.838Z,640
2016-12-26T09:50:33.829Z,660
2016-12-26T09:51:45.019Z,704
2016-12-26T09:52:56.025Z,760
2016-12-26T09:54:07.009Z,672
2016-12-26T09:55:18.044Z,604
2016-12-26T09:56:29.034Z,644
2016-12-26T09:57:40.025Z,656
2016-12-26T09:58:51.025Z,588
2016-12-26T10:00:02.009Z,532
2016-12-26T10:01:12.996Z,548
2016-12-26T10:02:24.194Z,632
2016-12-26T10:03:35.186Z,740
2016-12-26T10:04:46.178Z,812
2016-12-26T10:05:57.162Z,828
2016-12-26T10:07:08.197Z,904
2016-12-26T10:08:19.381Z,920
2016-12-26T10:09:30.368Z,840
2016-12-26T10:10:41.360Z,752
2016-12-26T10:11:52.392Z,720
2016-12-26T10:13:03.380Z,664
2016-12-26T10:14:14.367Z,680
2016-12-26T10:15:25.550Z,844
2016-12-26T10:16:36.569Z,1044
2016-12-26T10:17:47.635Z,1152
2016-12-26T10:18:58.820Z,1204
2016-12-26T10:20:09.809Z,1236
2016-12-26T10:21:20.802Z,1220
2016-12-26T10:22:31.787Z,1264
2016-12-26T10:23:42.824Z,1440
2016-12-26T10:24:53.813Z,1600
2016-12-26T10:26:05.191Z,1716
2016-12-26T10:27:16.184Z,1832
2016-12-26T10:28:27.365Z,1868
2016-12-26T10:29:38.417Z,1800
2016-12-26T10:30:49.398Z,1876
2016-12-26T10:32:00.384Z,2032
2016-12-26T10:33:11.386Z,2264
2016-12-26T10:34:22.367Z,2080
2016-12-26T10:35:33.404Z,1808
2016-12-26T10:36:44.384Z,1676
2016-12-26T10:37:55.362Z,1516
2016-12-26T10:39:06.354Z,1464
2016-12-26T10:40:17.333Z,1640
2016-12-26T10:41:28.769Z,1952
2016-12-26T10:42:39.760Z,2228
2016-12-26T10:43:50.743Z,2336
2016-12-26T10:45:01.740Z,2468
2016-12-26T10:46:12.745Z,2296
2016-12-26T10:47:23.772Z,2132
2016-12-26T10:48:34.762Z,2652
2016-12-26T10:49:45.747Z,3464
2016-12-26T10:50:56.731Z,3364
2016-12-26T10:52:07.713Z,3152
2016-12-26T10:53:18.749Z,4820
2016-12-26T10:54:29.737Z,7280
2016-12-26T10:55:40.923Z,8348
2016-12-26T10:56:51.927Z,8436
2016-12-26T10:58:02.911Z,7444
2016-12-26T10:59:13.900Z,6348
2016-12-26T11:00:25.092Z,5464
2016-12-26T11:01:36.278Z,4948
2016-12-26T11:02:47.264Z,5264
2016-12-26T11:03:58.297Z,5696
2016-12-26T11:05:09.486Z,4728
2016-12-26T11:06:20.475Z,4488
2016-12-26T11:07:31.492Z,4012
2016-12-26T11:08:42.486Z,3832
2016-12-26T11:09:53.525Z,3696
2016-12-26T11:11:04.508Z,3628
2016-12-26T11:12:15.700Z,2520
2016-12-26T11:13:26.689Z,1964
2016-12-26T11:14:37.876Z,1476
2016-12-26T11:15:48.923Z,1180
2016-12-26T11:16:59.906Z,1008
2016-12-26T11:18:10.896Z,1080
2016-12-26T11:19:21.873Z,1688
2016-12-26T11:20:32.856Z,3884
2016-12-26T11:21:43.902Z,4648
2016-12-26T11:22:54.889Z,4724
2016-12-26T11:24:05.869Z,5160
2016-12-26T11:25:16.853Z,3416
2016-12-26T11:26:27.836Z,2372
2016-12-26T11:27:38.877Z,2632
2016-12-26T11:28:49.865Z,3424
2016-12-26T11:30:00.854Z,3928
2016-12-26T11:31:11.873Z,5664
2016-12-26T11:32:22.850Z,4148
2016-12-26T11:33:33.885Z,3856
2016-12-26T11:34:44.864Z,8716
2016-12-26T11:35:56.256Z,4780
2016-12-26T11:37:07.241Z,3824
2016-12-26T11:38:18.218Z,3228
2016-12-26T11:39:29.449Z,3436
2016-12-26T11:40:40.439Z,3284
2016-12-26T11:41:51.623Z,6396
2016-12-26T11:43:02.607Z,6992
2016-12-26T11:44:13.585Z,31392
2016-12-26T11:45:24.626Z,15436
2016-12-26T11:46:35.614Z,7612
2016-12-26T11:47:46.596Z,7752
2016-12-26T11:48:57.576Z,7512
2016-12-26T11:50:08.573Z,11964
2016-12-26T11:51:19.610Z,7180
2016-12-26T11:52:30.589Z,7036
2016-12-26T11:53:41.580Z,5852
2016-12-26T11:54:52.564Z,5868
2016-12-26T11:56:03.552Z,4652
2016-12-26T11:57:14.758Z,4536
2016-12-26T11:58:25.949Z,4944
2016-12-26T11:59:37.167Z,5096
2016-12-26T12:00:48.363Z,5812
2016-12-26T12:01:59.359Z,7460
2016-12-26T12:03:10.398Z,6740
2016-12-26T12:04:21.381Z,4708
2016-12-26T12:05:32.368Z,4980
2016-12-26T12:06:43.360Z,6684
2016-12-26T12:07:54.540Z,5560
2016-12-26T12:09:05.526Z,6508
2016-12-26T12:10:16.511Z,5884
2016-12-26T12:11:27.496Z,6952
2016-12-26T12:12:38.484Z,29152
2016-12-26T12:13:49.524Z,8088
2016-12-26T12:15:00.515Z,13008
2016-12-26T12:16:11.506Z,10548
2016-12-26T12:17:22.496Z,8072
2016-12-26T12:18:33.687Z,9248
2016-12-26T12:19:44.715Z,7952
2016-12-26T12:20:55.704Z,6820
2016-12-26T12:22:06.723Z,6348
2016-12-26T12:23:17.909Z,5124
2016-12-26T12:24:28.899Z,4844
2016-12-26T12:25:39.936Z,3784
2016-12-26T12:26:50.928Z,3188
2016-12-26T12:28:01.915Z,2552
2016-12-26T12:29:13.101Z,2220
2016-12-26T12:30:24.088Z,2764
2016-12-26T12:31:35.103Z,3912
2016-12-26T12:32:46.102Z,3752
2016-12-26T12:33:57.086Z,3780
2016-12-26T12:35:08.359Z,4260
2016-12-26T12:36:19.802Z,4264
2016-12-26T12:37:31.199Z,3476
2016-12-26T12:38:42.359Z,2832
2016-12-26T12:39:53.578Z,2512
2016-12-26T12:41:04.766Z,2536
2016-12-26T12:42:15.803Z,2516
2016-12-26T12:43:26.789Z,2388
2016-12-26T12:44:37.787Z,2484
2016-12-26T12:45:48.964Z,2804
2016-12-26T12:47:00.151Z,3096
2016-12-26T12:48:11.185Z,3036
2016-12-26T12:49:22.168Z,2788
2016-12-26T12:50:33.157Z,3532
2016-12-26T12:51:44.152Z,3772
2016-12-26T12:52:55.139Z,3040
2016-12-26T12:54:06.134Z,2988
2016-12-26T12:55:17.105Z,3256
2016-12-26T12:56:28.156Z,3720
2016-12-26T12:57:39.146Z,4152
2016-12-26T12:58:50.186Z,4160
2016-12-26T13:00:01.378Z,4272
2016-12-26T13:01:12.376Z,4048
2016-12-26T13:02:23.362Z,3896
2016-12-26T13:03:34.545Z,3476
2016-12-26T13:04:45.591Z,3456
2016-12-26T13:05:56.601Z,3032
2016-12-26T13:07:07.579Z,2504
2016-12-26T13:08:18.563Z,2428
2016-12-26T13:09:29.558Z,2296
2016-12-26T13:10:40.621Z,2220
2016-12-26T13:11:51.611Z,2328
2016-12-26T13:13:02.606Z,2484
2016-12-26T13:14:13.607Z,2364
2016-12-26T13:15:24.600Z,1972
2016-12-26T13:16:35.846Z,1788
2016-12-26T13:17:47.055Z,1784
2016-12-26T13:18:58.271Z,1864
2016-12-26T13:20:09.263Z,1804
2016-12-26T13:21:20.309Z,1648
2016-12-26T13:22:31.291Z,1524
2016-12-26T13:23:42.275Z,1560
2016-12-26T13:24:53.260Z,1704
2016-12-26T13:26:04.251Z,1696
2016-12-26T13:27:15.484Z,1588
2016-12-26T13:28:26.484Z,1576
2016-12-26T13:29:37.466Z,1672
2016-12-26T13:30:48.650Z,1700
2016-12-26T13:31:59.633Z,1668
2016-12-26T13:33:10.660Z,1696
2016-12-26T13:34:21.859Z,1800
2016-12-26T13:35:32.883Z,1860
2016-12-26T13:36:43.866Z,1904
2016-12-26T13:37:55.050Z,1984
2016-12-26T13:39:06.032Z,2132
2016-12-26T13:40:17.017Z,2240
2016-12-26T13:41:28.001Z,2620
2016-12-26T13:42:39.188Z,2504
2016-12-26T13:43:50.165Z,2320
2016-12-26T13:45:01.195Z,2188
2016-12-26T13:46:12.180Z,2180
2016-12-26T13:47:23.367Z,2132
2016-12-26T13:48:34.556Z,2152
2016-12-26T13:49:45.540Z,2108
2016-12-26T13:50:56.523Z,2052
2016-12-26T13:52:07.711Z,2028
2016-12-26T13:53:18.697Z,2608
2016-12-26T13:54:29.682Z,2964
2016-12-26T13:55:40.722Z,2792
2016-12-26T13:56:51.713Z,1852
2016-12-26T13:58:02.695Z,1872
2016-12-26T13:59:13.683Z,1852
2016-12-26T14:00:24.865Z,1760
2016-12-26T14:01:35.899Z,1732
2016-12-26T14:02:46.891Z,1760
2016-12-26T14:03:57.882Z,1784
2016-12-26T14:05:08.871Z,1824
2016-12-26T14:06:20.063Z,1828
2016-12-26T14:07:31.109Z,2036
2016-12-26T14:08:42.083Z,2084
2016-12-26T14:09:53.068Z,2484
2016-12-26T14:11:04.045Z,2444
2016-12-26T14:12:15.036Z,2360
2016-12-26T14:13:26.283Z,2236
2016-12-26T14:14:37.260Z,1904
2016-12-26T14:15:48.467Z,1704
2016-12-26T14:16:59.654Z,1916
2016-12-26T14:18:10.695Z,1900
2016-12-26T14:19:21.713Z,1444
2016-12-26T14:20:32.704Z,1536
2016-12-26T14:21:43.692Z,1532
2016-12-26T14:22:54.684Z,1440
2016-12-26T14:24:05.757Z,1392
2016-12-26T14:25:16.956Z,1288
2016-12-26T14:26:27.936Z,1092
2016-12-26T14:27:39.131Z,1124
2016-12-26T14:28:50.111Z,1120
2016-12-26T14:30:01.343Z,1184
2016-12-26T14:31:12.328Z,1152
2016-12-26T14:32:23.312Z,1064
2016-12-26T14:33:34.505Z,1064
2016-12-26T14:34:45.487Z,1056
2016-12-26T14:35:56.674Z,1024
2016-12-26T14:37:07.661Z,1004
2016-12-26T14:38:18.682Z,1004
2016-12-26T14:39:29.668Z,1016
2016-12-26T14:40:41.104Z,1020
2016-12-26T14:41:52.087Z,1028
2016-12-26T14:43:03.073Z,1024
2016-12-26T14:44:14.059Z,1004
2016-12-26T14:45:25.042Z,996
2016-12-26T14:46:36.133Z,980
2016-12-26T14:47:47.120Z,948
2016-12-26T14:48:58.108Z,908
2016-12-26T14:50:09.102Z,872
2016-12-26T14:51:20.081Z,844
2016-12-26T14:52:31.514Z,820
2016-12-26T14:53:42.504Z,804
2016-12-26T14:54:53.488Z,780
2016-12-26T14:56:04.469Z,756
2016-12-26T14:57:15.442Z,744
2016-12-26T14:58:26.421Z,712
2016-12-26T14:59:37.415Z,680
2016-12-26T15:00:48.397Z,652
2016-12-26T15:01:59.380Z,612
2016-12-26T15:03:10.422Z,580
2016-12-26T15:04:21.407Z,548
2016-12-26T15:05:32.390Z,512
2016-12-26T15:06:43.372Z,480
2016-12-26T15:07:54.582Z,460
2016-12-26T15:09:05.815Z,436
2016-12-26T15:10:16.809Z,420
2016-12-26T15:11:27.992Z,400
2016-12-26T15:12:38.967Z,376
2016-12-26T15:13:49.953Z,348
2016-12-26T15:15:01.185Z,324
2016-12-26T15:16:12.172Z,300
2016-12-26T15:17:23.152Z,280
2016-12-26T15:18:34.146Z,260
2016-12-26T15:19:45.331Z,240
2016-12-26T15:20:56.308Z,220
2016-12-26T15:22:07.293Z,200
2016-12-26T15:23:18.271Z,188
2016-12-26T15:24:29.253Z,172
2016-12-26T15:25:40.484Z,156
2016-12-26T15:26:51.463Z,144
2016-12-26T15:28:02.439Z,132
2016-12-26T15:29:13.432Z,116
2016-12-26T15:30:24.416Z,108
2016-12-26T15:31:35.451Z,96
2016-12-26T15:32:46.435Z,84
2016-12-26T15:33:57.439Z,76
2016-12-26T15:35:08.431Z,64
2016-12-26T15:36:19.420Z,60
2016-12-26T15:37:30.457Z,52
2016-12-26T15:38:41.457Z,44
2016-12-26T15:39:52.439Z,36
2016-12-26T15:41:03.428Z,36
2016-12-26T15:42:14.439Z,28
2016-12-26T15:43:25.445Z,24
2016-12-26T15:44:36.431Z,20
2016-12-26T15:45:47.419Z,16
2016-12-26T15:46:58.403Z,16
2016-12-26T15:48:09.632Z,12
2016-12-26T15:49:20.622Z,8
2016-12-26T15:50:31.603Z,8
2016-12-26T15:51:42.587Z,8
2016-12-26T15:52:53.575Z,8
2016-12-26T15:54:04.610Z,4
2016-12-26T15:55:15.596Z,4
2016-12-26T15:56:26.581Z,4
2016-12-26T15:57:37.769Z,0
2016-12-26T15:58:48.783Z,4
2016-12-26T15:59:59.859Z,4
2016-12-26T16:01:10.846Z,0
2016-12-26T16:02:21.833Z,0
2016-12-26T16:03:32.817Z,0
2016-12-26T16:04:43.793Z,0
2016-12-26T16:05:54.879Z,0
2016-12-26T16:07:06.070Z,0
2016-12-26T16:08:17.058Z,0
2016-12-26T16:09:28.045Z,0
2016-12-26T16:10:39.226Z,0
2016-12-26T16:11:50.268Z,0
2016-12-26T16:13:01.255Z,0
2016-12-26T16:14:12.240Z,0
2016-12-26T16:15:23.234Z,0
2016-12-26T16:16:34.413Z,0
2016-12-26T16:17:45.394Z,0
2016-12-26T16:18:56.376Z,0
2016-12-26T16:20:07.357Z,0
2016-12-26T16:21:18.340Z,0
2016-12-26T16:22:29.424Z,0
2016-12-26T16:23:40.607Z,0
2016-12-26T16:24:51.587Z,0
2016-12-26T16:26:02.771Z,0
2016-12-26T16:27:13.772Z,0
2016-12-26T16:28:24.800Z,0
2016-12-26T16:29:35.784Z,0
2016-12-26T16:30:46.760Z,0
2016-12-26T16:31:57.954Z,0
2016-12-26T16:33:09.131Z,0
2016-12-26T16:34:20.161Z,0
2016-12-26T16:35:31.146Z,0
2016-12-26T16:36:42.130Z,0
2016-12-26T16:37:53.312Z,0
2016-12-26T16:39:04.326Z,0
2016-12-26T16:40:15.303Z,0
2016-12-26T16:41:26.683Z,0
2016-12-26T16:42:37.667Z,0
2016-12-26T16:43:48.655Z,0